Time;durP1;ratioP1;P1;durP2;ratioP2;P2;SDS_P1;SDS_P2;PMS_P1;PMS_P2;Temp;Humidity;BMP_temperature;BMP_pressure;BME280_temperature;BME280_humidity;BME280_pressure;Samples;Min_cycle;Max_cycle;Signal;HPM_P1;HPM_P2
2023/08/02 00:01:09;;;;;;;14.20;8.10;;;25.40;95.90;;;;;;4919093;29;20045;-77
2023/08/02 00:03:36;;;;;;;11.35;7.65;;;25.50;96.00;;;;;;4917049;29;20048;-77
2023/08/02 00:06:04;;;;;;;13.15;8.13;;;25.40;96.10;;;;;;4918512;29;20147;-76
2023/08/02 00:08:32;;;;;;;11.65;7.22;;;25.30;96.10;;;;;;4917756;29;20076;-79
2023/08/02 00:10:59;;;;;;;22.27;8.20;;;25.40;96.30;;;;;;4923334;29;20460;-79
2023/08/02 00:13:26;;;;;;;13.15;7.43;;;25.50;96.20;;;;;;4921839;29;20518;-76
2023/08/02 00:15:54;;;;;;;11.82;7.43;;;25.50;96.10;;;;;;4918548;29;20060;-79
2023/08/02 00:18:21;;;;;;;10.05;6.97;;;25.70;95.10;;;;;;4918056;29;20407;-80
2023/08/02 00:20:50;;;;;;;11.68;6.97;;;25.80;94.60;;;;;;4917968;29;20079;-75
2023/08/02 00:23:17;;;;;;;11.15;6.90;;;25.30;95.20;;;;;;4918395;29;20527;-78
2023/08/02 00:25:45;;;;;;;11.02;6.85;;;25.00;96.00;;;;;;4918405;29;20068;-78
2023/08/02 00:28:12;;;;;;;17.70;6.72;;;24.90;96.40;;;;;;4918482;29;20052;-79
2023/08/02 00:30:44;;;;;;;8.40;5.88;;;24.90;96.30;;;;;;4917610;29;20500;-77
2023/08/02 00:33:12;;;;;;;15.93;7.22;;;25.20;95.90;;;;;;4918278;29;20056;-79
2023/08/02 00:35:44;;;;;;;10.60;6.38;;;25.30;95.90;;;;;;4901729;29;20112;-77
2023/08/02 00:38:13;;;;;;;9.25;6.47;;;25.20;95.80;;;;;;4918130;29;20135;-79
2023/08/02 00:40:40;;;;;;;12.25;6.28;;;25.10;96.00;;;;;;4917833;29;20054;-78
2023/08/02 00:43:08;;;;;;;14.63;7.20;;;25.00;96.40;;;;;;4918886;29;20083;-80
2023/08/02 00:45:38;;;;;;;10.32;6.40;;;25.10;96.40;;;;;;4901923;29;20107;-78
2023/08/02 00:48:06;;;;;;;9.02;6.43;;;25.20;96.30;;;;;;4918176;29;20456;-79
2023/08/02 00:50:35;;;;;;;10.23;7.25;;;25.20;96.30;;;;;;4900613;29;20052;-77
2023/08/02 00:53:03;;;;;;;11.18;7.15;;;25.00;96.50;;;;;;4917890;29;20076;-78
2023/08/02 00:55:30;;;;;;;10.98;6.72;;;24.80;97.00;;;;;;4905558;29;20063;-78
2023/08/02 00:57:59;;;;;;;9.63;6.30;;;24.70;97.30;;;;;;4890559;29;20048;-76
2023/08/02 01:00:27;;;;;;;14.63;7.13;;;24.70;97.50;;;;;;4917497;29;20060;-79
2023/08/02 01:02:55;;;;;;;12.30;6.90;;;24.80;97.40;;;;;;4885796;29;20056;-82
2023/08/02 01:05:29;;;;;;;11.50;7.10;;;24.80;97.40;;;;;;4897797;29;20057;-78
2023/08/02 01:08:03;;;;;;;10.27;6.82;;;25.00;97.70;;;;;;4911804;29;20049;-78
2023/08/02 01:10:50;;;;;;;9.80;6.78;;;24.90;97.50;;;;;;4917585;29;20059;-78
2023/08/02 01:13:20;;;;;;;8.85;6.38;;;25.20;97.20;;;;;;4900737;29;20390;-78
2023/08/02 01:15:48;;;;;;;13.82;6.68;;;25.10;97.70;;;;;;4918122;29;20083;-78
2023/08/02 01:18:16;;;;;;;10.10;6.93;;;25.00;97.80;;;;;;4881326;29;20469;-78
2023/08/02 01:20:43;;;;;;;14.55;6.70;;;25.00;98.20;;;;;;4910415;29;20086;-79
2023/08/02 01:23:10;;;;;;;9.65;6.57;;;25.00;97.80;;;;;;4916601;29;20056;-80
2023/08/02 01:25:42;;;;;;;11.27;7.40;;;24.90;98.10;;;;;;4901129;29;20409;-80
2023/08/02 01:28:18;;;;;;;10.13;6.85;;;25.10;98.20;;;;;;4905125;29;20412;-77
2023/08/02 01:30:47;;;;;;;12.43;7.22;;;25.00;98.10;;;;;;4917129;29;20504;-79
2023/08/02 01:33:16;;;;;;;10.77;6.30;;;25.00;98.20;;;;;;4916814;29;20224;-77
2023/08/02 01:35:43;;;;;;;9.50;6.95;;;25.10;97.40;;;;;;4917461;29;20052;-74
2023/08/02 01:38:11;;;;;;;10.95;6.80;;;25.10;97.00;;;;;;4917341;29;20056;-79
2023/08/02 01:40:38;;;;;;;10.15;6.30;;;24.30;98.40;;;;;;4917497;29;20457;-78
2023/08/02 01:43:06;;;;;;;16.15;7.25;;;24.30;99.00;;;;;;4917412;29;20067;-77
2023/08/02 01:45:34;;;;;;;9.98;6.80;;;24.40;98.90;;;;;;4916997;29;20452;-78
2023/08/02 01:48:01;;;;;;;11.15;6.60;;;24.50;99.10;;;;;;4916983;29;20198;-78
2023/08/02 01:50:29;;;;;;;9.30;6.60;;;24.60;98.90;;;;;;4896291;29;20053;-77
2023/08/02 01:52:56;;;;;;;10.70;6.72;;;24.60;98.90;;;;;;4908312;29;20086;-81
2023/08/02 01:55:23;;;;;;;9.23;6.90;;;24.50;99.10;;;;;;4905615;29;20474;-79
2023/08/02 01:57:50;;;;;;;10.13;6.55;;;24.40;99.20;;;;;;4916108;29;20075;-78
2023/08/02 02:00:18;;;;;;;13.82;7.25;;;24.20;99.30;;;;;;4916159;29;20051;-78
2023/08/02 02:03:04;;;;;;;9.82;6.82;;;24.50;99.30;;;;;;4916276;29;20131;-79
2023/08/02 02:05:32;;;;;;;9.48;7.15;;;24.50;99.30;;;;;;4888356;29;20057;-79
2023/08/02 02:07:59;;;;;;;10.25;7.95;;;24.40;99.80;;;;;;4915831;29;20143;-77
2023/08/02 02:10:26;;;;;;;14.60;8.27;;;24.40;99.80;;;;;;4899605;29;20078;-78
2023/08/02 02:12:54;;;;;;;11.55;10.48;;;24.50;99.70;;;;;;4915615;29;20055;-78
2023/08/02 02:15:21;;;;;;;11.23;9.85;;;24.50;99.50;;;;;;4894960;29;20052;-78
2023/08/02 02:17:48;;;;;;;9.80;8.75;;;24.60;99.60;;;;;;4911571;29;20393;-76
2023/08/02 02:20:16;;;;;;;9.73;8.30;;;24.40;99.40;;;;;;4916923;29;20062;-78
2023/08/02 02:22:43;;;;;;;14.57;13.18;;;24.60;99.20;;;;;;4915357;29;20055;-78
2023/08/02 02:25:10;;;;;;;12.27;11.15;;;24.20;99.70;;;;;;4895904;29;20088;-79
2023/08/02 02:27:37;;;;;;;15.27;13.63;;;23.90;99.90;;;;;;4895463;29;20147;-79
2023/08/02 02:30:05;;;;;;;9.57;7.90;;;23.70;99.90;;;;;;4915727;29;20104;-76
2023/08/02 02:32:33;;;;;;;9.60;7.45;;;23.90;99.90;;;;;;4898730;29;20076;-79
2023/08/02 02:35:00;;;;;;;9.45;8.45;;;24.10;99.90;;;;;;4899100;29;20044;-76
2023/08/02 02:37:27;;;;;;;13.20;9.55;;;24.40;99.90;;;;;;4915621;29;20048;-77
2023/08/02 02:39:54;;;;;;;12.82;11.50;;;24.50;99.80;;;;;;4916154;29;20052;-78
2023/08/02 02:42:22;;;;;;;16.27;8.27;;;24.50;99.70;;;;;;4914926;29;20473;-77
2023/08/02 02:44:49;;;;;;;12.13;8.30;;;24.40;99.60;;;;;;4915443;29;20068;-77
2023/08/02 02:47:16;;;;;;;10.35;8.63;;;24.30;99.90;;;;;;4898598;29;20052;-77
2023/08/02 02:49:43;;;;;;;10.32;8.38;;;23.90;99.90;;;;;;4898821;29;20082;-77
2023/08/02 02:52:11;;;;;;;10.05;8.60;;;23.90;99.90;;;;;;4914995;29;20409;-77
2023/08/02 02:54:39;;;;;;;11.10;8.20;;;24.20;99.90;;;;;;4885860;29;20123;-77
2023/08/02 02:57:06;;;;;;;8.38;6.90;;;24.20;99.90;;;;;;4916384;29;20143;-79
2023/08/02 02:59:34;;;;;;;9.90;8.63;;;24.20;99.90;;;;;;4915423;29;20053;-75
2023/08/02 03:02:01;;;;;;;12.65;9.05;;;24.30;99.90;;;;;;4898340;29;20116;-76
2023/08/02 03:04:29;;;;;;;12.98;9.82;;;24.20;99.90;;;;;;4915328;29;20048;-77
2023/08/02 03:06:56;;;;;;;10.20;8.27;;;24.20;99.90;;;;;;4914987;29;20191;-75
2023/08/02 03:09:23;;;;;;;12.93;11.30;;;24.40;99.90;;;;;;4915013;29;20056;-78
2023/08/02 03:11:50;;;;;;;12.50;10.43;;;24.30;99.90;;;;;;4914778;29;20100;-77
2023/08/02 03:14:18;;;;;;;15.57;9.43;;;24.10;99.90;;;;;;4914710;29;20489;-77
2023/08/02 03:16:45;;;;;;;11.32;8.75;;;23.50;99.90;;;;;;4915222;29;20139;-77
2023/08/02 03:19:13;;;;;;;10.80;8.15;;;23.30;99.90;;;;;;4914909;29;20052;-77
2023/08/02 03:21:41;;;;;;;12.27;7.10;;;23.10;99.90;;;;;;4898135;29;20407;-74
2023/08/02 03:24:09;;;;;;;10.90;6.65;;;22.80;99.90;;;;;;4914807;29;20053;-76
2023/08/02 03:26:36;;;;;;;10.35;6.82;;;22.80;99.90;;;;;;4914843;29;20119;-75
2023/08/02 03:29:03;;;;;;;12.10;7.32;;;22.80;99.90;;;;;;4897918;29;20407;-78
2023/08/02 03:31:30;;;;;;;13.05;7.45;;;22.70;99.90;;;;;;4914566;29;20465;-78
2023/08/02 03:33:58;;;;;;;9.38;7.10;;;22.70;99.90;;;;;;4897941;29;20135;-77
2023/08/02 03:36:25;;;;;;;8.93;6.90;;;22.90;99.90;;;;;;4915118;29;20131;-77
2023/08/02 03:38:52;;;;;;;7.78;6.45;;;23.30;99.90;;;;;;4914714;29;20055;-78
2023/08/02 03:41:20;;;;;;;11.38;6.85;;;23.60;99.90;;;;;;4915163;29;20052;-76
2023/08/02 03:43:47;;;;;;;11.07;7.75;;;23.90;99.90;;;;;;4915450;29;20064;-79
2023/08/02 03:46:14;;;;;;;10.05;7.28;;;24.10;99.90;;;;;;4915534;29;20048;-79
2023/08/02 03:48:41;;;;;;;9.57;7.35;;;24.10;99.90;;;;;;4915893;29;20153;-78
2023/08/02 03:51:09;;;;;;;9.15;6.60;;;24.20;99.90;;;;;;4917431;29;20482;-78
2023/08/02 03:53:36;;;;;;;9.40;7.68;;;24.10;99.90;;;;;;4914353;29;20080;-77
2023/08/02 03:56:03;;;;;;;10.90;7.90;;;24.00;99.90;;;;;;4917334;29;20465;-77
2023/08/02 03:58:31;;;;;;;9.32;8.30;;;24.00;99.90;;;;;;4914552;29;20048;-76
2023/08/02 04:00:58;;;;;;;12.30;9.93;;;24.00;99.90;;;;;;4897817;29;20056;-78
2023/08/02 04:03:25;;;;;;;9.35;8.25;;;23.90;99.90;;;;;;4914309;29;20040;-77
2023/08/02 04:05:56;;;;;;;13.07;9.67;;;23.90;99.90;;;;;;4914397;29;20087;-77
2023/08/02 04:08:23;;;;;;;11.48;9.55;;;23.70;99.90;;;;;;4894715;29;20049;-78
2023/08/02 04:10:51;;;;;;;10.35;8.85;;;23.60;99.90;;;;;;4906443;29;20107;-76
2023/08/02 04:13:18;;;;;;;16.60;7.88;;;23.70;99.90;;;;;;4913745;29;20063;-77
2023/08/02 04:15:45;;;;;;;11.30;8.15;;;23.90;99.90;;;;;;4914647;29;20104;-76
2023/08/02 04:18:13;;;;;;;11.00;8.95;;;24.00;99.90;;;;;;4897691;29;20123;-76
2023/08/02 04:20:41;;;;;;;11.77;10.00;;;24.00;99.90;;;;;;4897601;29;20090;-78
2023/08/02 04:23:08;;;;;;;11.13;9.38;;;23.90;99.90;;;;;;4914336;29;20055;-74
2023/08/02 04:25:36;;;;;;;14.32;11.95;;;24.00;99.90;;;;;;4915102;29;20477;-79
2023/08/02 04:28:03;;;;;;;13.85;12.52;;;24.10;99.90;;;;;;4901907;29;20059;-77
2023/08/02 04:30:30;;;;;;;15.07;10.32;;;24.00;99.90;;;;;;4910630;29;20135;-75
2023/08/02 04:32:58;;;;;;;16.85;15.23;;;23.90;99.90;;;;;;4914780;29;20127;-78
2023/08/02 04:35:26;;;;;;;15.95;13.25;;;24.00;99.90;;;;;;4914208;29;20401;-76
2023/08/02 04:37:53;;;;;;;17.20;14.95;;;23.80;99.90;;;;;;4916736;29;20070;-78
2023/08/02 04:40:20;;;;;;;15.35;12.35;;;23.50;99.90;;;;;;4898588;29;20144;-74
2023/08/02 04:42:48;;;;;;;14.68;12.77;;;23.60;99.90;;;;;;4900832;29;20596;-77
2023/08/02 04:45:15;;;;;;;15.80;13.73;;;23.70;99.90;;;;;;4918208;29;20048;-77
2023/08/02 04:47:42;;;;;;;15.43;12.77;;;23.60;99.90;;;;;;4900650;29;20054;-77
2023/08/02 04:50:09;;;;;;;16.90;11.43;;;23.70;99.90;;;;;;4917729;29;20055;-77
2023/08/02 04:52:37;;;;;;;21.17;14.23;;;23.60;99.90;;;;;;4917089;29;20115;-76
2023/08/02 04:55:06;;;;;;;16.33;11.63;;;23.70;99.90;;;;;;4902628;29;20056;-75
2023/08/02 04:57:33;;;;;;;18.13;15.10;;;23.80;99.90;;;;;;4927522;29;20048;-77
2023/08/02 05:00:04;;;;;;;19.38;13.75;;;24.00;99.90;;;;;;4901014;29;20059;-79
2023/08/02 05:02:36;;;;;;;16.90;15.13;;;23.90;99.90;;;;;;4897358;29;20529;-77
2023/08/02 05:05:04;;;;;;;18.20;16.30;;;23.80;99.90;;;;;;4915102;29;20108;-78
2023/08/02 05:07:35;;;;;;;16.80;12.63;;;23.80;99.90;;;;;;4916755;29;20052;-75
2023/08/02 05:10:06;;;;;;;15.27;13.13;;;23.80;99.90;;;;;;4917034;29;20075;-79
2023/08/02 05:12:35;;;;;;;15.27;11.45;;;23.90;99.90;;;;;;4917296;29;20468;-78
2023/08/02 05:15:03;;;;;;;15.55;13.00;;;24.00;99.90;;;;;;4917157;29;20053;-75
2023/08/02 05:17:31;;;;;;;16.00;14.02;;;24.00;99.90;;;;;;4917618;29;20063;-79
2023/08/02 05:19:58;;;;;;;18.13;16.38;;;24.00;99.90;;;;;;4901214;29;20071;-79
2023/08/02 05:22:25;;;;;;;18.67;14.38;;;24.00;99.90;;;;;;4917522;29;20412;-78
2023/08/02 05:24:53;;;;;;;17.27;15.32;;;24.00;99.90;;;;;;4917451;29;20048;-78
2023/08/02 05:27:20;;;;;;;18.45;14.20;;;24.00;99.90;;;;;;4898329;29;20477;-76
2023/08/02 05:29:47;;;;;;;15.25;13.73;;;24.00;99.90;;;;;;4897190;29;20507;-78
2023/08/02 05:32:15;;;;;;;17.77;15.93;;;24.10;99.90;;;;;;4911565;29;20504;-78
2023/08/02 05:34:42;;;;;;;16.02;14.38;;;24.10;99.90;;;;;;4897373;29;20068;-79
2023/08/02 05:37:09;;;;;;;16.00;14.35;;;24.20;99.90;;;;;;4911993;29;20044;-79
2023/08/02 05:39:36;;;;;;;18.60;14.57;;;24.10;99.90;;;;;;4916990;29;20400;-77
2023/08/02 05:42:04;;;;;;;17.98;15.93;;;24.10;99.90;;;;;;4916575;29;20107;-76
2023/08/02 05:44:31;;;;;;;14.10;12.13;;;24.10;99.90;;;;;;4916710;29;20048;-77
2023/08/02 05:46:59;;;;;;;15.35;11.80;;;24.10;99.90;;;;;;4916673;29;20099;-75
2023/08/02 05:49:26;;;;;;;15.80;12.68;;;24.20;99.90;;;;;;4895626;29;20063;-75
2023/08/02 05:51:53;;;;;;;15.35;13.98;;;24.20;99.90;;;;;;4894238;29;20508;-76
2023/08/02 05:54:21;;;;;;;16.83;14.52;;;24.30;99.90;;;;;;4916514;29;20056;-78
2023/08/02 05:57:09;;;;;;;17.42;15.98;;;24.40;99.90;;;;;;4927516;29;20043;-76
2023/08/02 05:59:38;;;;;;;15.88;14.57;;;24.50;99.90;;;;;;4899665;29;20058;-74
2023/08/02 06:02:07;;;;;;;17.60;15.75;;;24.30;99.90;;;;;;4916386;29;20107;-75
2023/08/02 06:04:35;;;;;;;14.30;11.73;;;24.30;99.90;;;;;;4916611;29;20083;-77
2023/08/02 06:07:05;;;;;;;;;;;24.40;99.90;;;;;;4904765;29;20060;-79
2023/08/02 06:09:32;;;;;;;12.05;9.55;;;24.60;99.90;;;;;;4900055;29;19958;-79
2023/08/02 06:12:01;;;;;;;16.42;14.82;;;24.50;99.90;;;;;;4916033;29;20087;-78
2023/08/02 06:14:28;;;;;;;19.13;17.42;;;24.50;99.90;;;;;;4915712;29;20086;-76
2023/08/02 06:16:55;;;;;;;18.38;16.85;;;24.50;99.90;;;;;;4899416;29;20143;-78
2023/08/02 06:19:23;;;;;;;17.65;16.08;;;24.40;99.90;;;;;;4915883;29;20048;-77
2023/08/02 06:21:51;;;;;;;15.02;13.52;;;24.40;99.90;;;;;;4916392;29;20060;-77
2023/08/02 06:24:19;;;;;;;19.33;17.73;;;24.50;99.90;;;;;;4917263;29;20052;-79
2023/08/02 06:26:47;;;;;;;14.85;13.55;;;24.60;99.90;;;;;;4917195;29;20477;-80
2023/08/02 06:29:14;;;;;;;15.25;13.77;;;24.70;99.90;;;;;;4916391;29;20099;-79
2023/08/02 06:31:41;;;;;;;18.35;16.50;;;24.80;99.90;;;;;;4917565;29;20501;-77
2023/08/02 06:34:09;;;;;;;19.95;18.25;;;25.10;99.90;;;;;;4918172;29;20040;-77
2023/08/02 06:36:38;;;;;;;18.40;16.90;;;25.00;99.90;;;;;;4918878;29;20055;-77
2023/08/02 06:39:05;;;;;;;17.55;16.05;;;25.20;99.90;;;;;;4916017;29;20048;-77
2023/08/02 06:41:33;;;;;;;18.85;17.25;;;25.20;99.90;;;;;;4916609;29;20139;-79
2023/08/02 06:44:00;;;;;;;22.88;21.13;;;25.30;99.90;;;;;;4916432;29;20456;-77
2023/08/02 06:46:29;;;;;;;21.13;19.38;;;25.30;99.90;;;;;;4916101;29;20084;-78
2023/08/02 06:48:57;;;;;;;18.83;17.30;;;25.40;99.90;;;;;;4899572;29;20048;-79
2023/08/02 06:51:24;;;;;;;21.45;19.45;;;25.40;99.90;;;;;;4896664;29;20064;-78
2023/08/02 06:53:52;;;;;;;21.15;19.17;;;25.50;99.90;;;;;;4915557;29;20052;-78
2023/08/02 06:56:19;;;;;;;27.23;24.98;;;25.50;99.90;;;;;;4923994;29;20051;-75
2023/08/02 06:58:46;;;;;;;24.48;22.55;;;25.40;99.90;;;;;;4916178;29;20050;-79
2023/08/02 07:01:19;;;;;;;21.13;19.48;;;25.30;99.90;;;;;;4915761;29;20116;-76
2023/08/02 07:03:47;;;;;;;18.00;16.48;;;25.50;99.90;;;;;;4902586;29;20056;-75
2023/08/02 07:06:17;;;;;;;18.33;16.88;;;25.60;99.90;;;;;;4915805;29;20620;-80
2023/08/02 07:08:48;;;;;;;65.43;58.53;;;25.60;99.90;;;;;;4916797;29;20054;-81
2023/08/02 07:11:16;;;;;;;55.20;46.72;;;25.60;99.90;;;;;;4917672;29;20056;-81
2023/08/02 07:14:01;;;;;;;40.50;36.72;;;25.70;99.90;;;;;;4917511;29;20516;-77
2023/08/02 07:16:28;;;;;;;22.75;20.85;;;25.90;99.90;;;;;;4899089;29;20047;-80
2023/08/02 07:18:55;;;;;;;23.48;21.15;;;25.90;99.90;;;;;;4913659;29;20052;-80
2023/08/02 07:21:22;;;;;;;27.13;24.92;;;25.90;99.90;;;;;;4901407;29;20127;-75
2023/08/02 07:23:50;;;;;;;28.27;26.20;;;26.00;99.90;;;;;;4901487;29;20056;-79
2023/08/02 07:26:17;;;;;;;22.73;20.73;;;25.90;99.90;;;;;;4898495;29;20052;-83
2023/08/02 07:28:44;;;;;;;15.85;14.35;;;26.00;99.90;;;;;;4904570;29;20135;-83
2023/08/02 07:31:13;;;;;;;22.38;20.77;;;26.00;99.90;;;;;;4908768;29;20572;-75
2023/08/02 07:33:40;;;;;;;19.73;18.15;;;26.10;99.90;;;;;;4895233;29;20041;-76
2023/08/02 07:36:19;;;;;;;24.27;22.48;;;26.10;99.90;;;;;;4898085;29;20060;-76
2023/08/02 07:38:47;;;;;;;20.63;19.13;;;26.20;99.90;;;;;;4908301;29;20048;-81
2023/08/02 07:41:14;;;;;;;14.73;13.48;;;26.10;99.90;;;;;;4914138;29;20056;-81
2023/08/02 07:43:41;;;;;;;15.10;13.77;;;26.20;99.90;;;;;;4910776;29;20053;-81
2023/08/02 07:46:19;;;;;;;16.25;14.98;;;26.30;99.90;;;;;;4901818;29;20048;-76
2023/08/02 07:48:49;;;;;;;11.40;10.23;;;26.40;99.90;;;;;;4915289;29;20489;-81
2023/08/02 07:51:17;;;;;;;15.38;12.90;;;26.50;99.90;;;;;;4909492;29;20056;-81
2023/08/02 07:53:45;;;;;;;15.75;14.13;;;26.40;99.90;;;;;;4904887;29;20071;-79
2023/08/02 07:56:12;;;;;;;18.58;17.10;;;26.40;99.90;;;;;;4910056;29;20047;-79
2023/08/02 07:58:40;;;;;;;21.08;19.45;;;26.30;99.90;;;;;;4905768;29;20598;-80
2023/08/02 08:01:10;;;;;;;19.05;17.65;;;26.40;99.90;;;;;;4909500;29;20055;-77
2023/08/02 08:03:37;;;;;;;18.33;16.92;;;26.40;99.90;;;;;;4899320;29;20111;-80
2023/08/02 08:06:15;;;;;;;33.25;29.75;;;26.60;99.90;;;;;;4915912;29;20060;-79
2023/08/02 08:08:45;;;;;;;33.75;30.45;;;26.80;99.90;;;;;;4913885;29;20052;-82
2023/08/02 08:11:13;;;;;;;21.08;19.27;;;26.80;99.90;;;;;;4901962;29;20053;-78
2023/08/02 08:13:58;;;;;;;15.68;14.38;;;26.90;99.90;;;;;;4896762;29;20445;-80
2023/08/02 08:16:29;;;;;;;18.85;17.13;;;27.00;99.10;;;;;;4886857;29;20051;-82
2023/08/02 08:18:56;;;;;;;19.48;18.08;;;27.10;99.20;;;;;;4918533;29;20142;-83
2023/08/02 08:21:24;;;;;;;29.73;27.75;;;27.20;98.80;;;;;;4919899;29;20048;-81
2023/08/02 08:23:51;;;;;;;40.65;36.45;;;27.10;98.30;;;;;;4919802;29;20408;-81
2023/08/02 08:26:21;;;;;;;39.90;35.97;;;27.20;98.20;;;;;;4919313;29;20136;-82
2023/08/02 08:28:48;;;;;;;27.00;24.65;;;27.20;98.30;;;;;;4892840;29;20100;-80
2023/08/02 08:31:15;;;;;;;22.17;20.40;;;27.20;98.30;;;;;;4916090;29;20080;-79
2023/08/02 08:33:43;;;;;;;26.20;23.83;;;27.30;98.30;;;;;;4909186;29;20089;-80
2023/08/02 08:36:14;;;;;;;18.00;16.52;;;27.60;98.00;;;;;;4919400;29;20075;-80
2023/08/02 08:38:44;;;;;;;28.48;26.55;;;27.80;97.90;;;;;;4885664;29;20056;-80
2023/08/02 08:41:32;;;;;;;27.60;25.65;;;27.90;97.50;;;;;;4904319;29;20063;-80
2023/08/02 08:44:03;;;;;;;29.75;27.73;;;28.00;97.50;;;;;;4895749;29;20087;-79
2023/08/02 08:46:32;;;;;;;33.55;31.25;;;27.90;97.90;;;;;;4894772;29;20044;-80
2023/08/02 08:49:00;;;;;;;31.20;29.25;;;27.90;98.00;;;;;;4913996;29;20052;-79
2023/08/02 08:51:31;;;;;;;32.65;30.25;;;27.90;98.00;;;;;;4883317;29;20143;-82
2023/08/02 08:54:04;;;;;;;61.05;55.15;;;28.00;98.00;;;;;;4891375;29;20082;-84
2023/08/02 08:56:35;;;;;;;60.13;56.08;;;28.20;97.60;;;;;;4885364;29;20148;-84
2023/08/02 08:59:05;;;;;;;103.82;96.57;;;28.20;96.70;;;;;;4894124;29;20123;-82
2023/08/02 09:01:32;;;;;;;111.43;102.78;;;28.00;97.00;;;;;;4889216;29;20085;-84
2023/08/02 09:04:00;;;;;;;89.70;83.97;;;28.00;97.20;;;;;;4910225;29;20060;-80
2023/08/02 09:06:29;;;;;;;103.38;95.65;;;28.10;97.30;;;;;;4889849;29;20624;-83
2023/08/02 09:08:56;;;;;;;61.67;57.72;;;28.20;96.90;;;;;;4884376;29;20056;-83
2023/08/02 09:11:24;;;;;;;89.28;83.93;;;28.20;97.00;;;;;;4914453;29;20056;-84
2023/08/02 09:14:11;;;;;;;71.93;67.55;;;28.30;97.10;;;;;;4907090;29;20060;-82
2023/08/02 09:17:02;;;;;;;88.97;83.65;;;28.20;96.40;;;;;;4904342;29;20135;-84
2023/08/02 09:19:33;;;;;;;63.28;59.40;;;28.10;95.60;;;;;;4901957;29;20771;-86
2023/08/02 09:22:10;;;;;;;76.05;71.60;;;28.20;95.70;;;;;;4882224;29;20060;-81
2023/08/02 09:24:40;;;;;;;68.97;64.82;;;28.30;95.80;;;;;;4923144;29;20052;-86
2023/08/02 09:27:14;;;;;;;72.03;67.35;;;28.50;95.60;;;;;;4889095;29;20505;-89
2023/08/02 09:29:49;;;;;;;101.07;95.38;;;28.70;95.10;;;;;;4896710;29;20500;-86
2023/08/02 09:32:23;;;;;;;105.85;99.72;;;28.60;94.60;;;;;;4886466;29;20142;-83
2023/08/02 09:34:56;;;;;;;105.25;99.18;;;28.70;94.10;;;;;;4901717;29;20116;-81
2023/08/02 09:37:34;;;;;;;89.53;84.30;;;28.70;94.20;;;;;;4915212;29;20083;-86
2023/08/02 09:40:11;;;;;;;85.03;79.97;;;28.80;94.30;;;;;;4902643;29;20083;-77
2023/08/02 09:42:39;;;;;;;115.13;108.43;;;28.90;94.80;;;;;;4892321;29;20390;-78
2023/08/02 09:45:08;;;;;;;119.93;113.20;;;29.10;94.20;;;;;;4917173;29;20393;-79
2023/08/02 09:47:36;;;;;;;124.43;117.30;;;29.40;93.90;;;;;;4900275;29;20131;-77
2023/08/02 09:50:05;;;;;;;121.57;114.65;;;29.70;93.50;;;;;;4917127;29;20400;-83
2023/08/02 09:52:34;;;;;;;125.72;118.57;;;29.80;93.10;;;;;;4879041;29;20088;-78
2023/08/02 09:55:03;;;;;;;128.40;120.28;;;29.90;92.40;;;;;;4882908;29;20115;-80
2023/08/02 09:57:32;;;;;;;174.15;162.02;;;30.10;92.00;;;;;;4884028;29;20452;-83
2023/08/02 10:00:06;;;;;;;207.18;192.30;;;30.00;91.30;;;;;;4890486;29;20059;-79
2023/08/02 10:02:37;;;;;;;242.63;223.38;;;29.90;90.50;;;;;;4884012;29;20064;-83
2023/08/02 10:05:09;;;;;;;234.40;218.05;;;30.00;90.60;;;;;;4907207;29;20051;-79
2023/08/02 10:07:39;;;;;;;;;;;30.00;89.30;;;;;;4917637;29;20074;-82
2023/08/02 10:10:09;;;;;;;;;;;30.10;89.00;;;;;;4897497;29;20379;-75
2023/08/02 10:12:39;;;;;;;113.25;106.55;;;30.40;90.70;;;;;;4896679;29;19989;-83
2023/08/02 10:15:08;;;;;;;140.27;131.73;;;30.30;89.70;;;;;;4918336;29;20056;-79
2023/08/02 10:17:36;;;;;;;165.63;156.20;;;30.30;90.00;;;;;;4900832;29;20067;-76
2023/08/02 10:20:05;;;;;;;168.13;158.90;;;30.40;88.30;;;;;;4916851;29;20667;-78
2023/08/02 10:22:36;;;;;;;177.77;167.88;;;30.40;86.50;;;;;;4916153;29;20107;-77
2023/08/02 10:25:05;;;;;;;173.80;164.38;;;30.40;88.20;;;;;;4923133;29;20075;-79
2023/08/02 10:27:35;;;;;;;173.45;163.63;;;30.40;87.20;;;;;;4915665;29;20051;-79
2023/08/02 10:30:04;;;;;;;173.95;164.77;;;30.60;85.10;;;;;;4903267;29;20048;-78
2023/08/02 10:32:32;;;;;;;169.40;159.73;;;30.90;86.20;;;;;;4900126;29;20053;-77
2023/08/02 10:35:00;;;;;;;165.20;156.50;;;30.80;85.60;;;;;;4902589;29;20048;-82
2023/08/02 10:37:54;;;;;;;180.23;171.00;;;30.90;84.10;;;;;;4915397;29;20512;-78
2023/08/02 10:44:13;;;;;;;164.02;155.55;;;31.00;80.20;;;;;;4916902;29;20075;-80
2023/08/02 10:46:41;;;;;;;168.98;160.38;;;31.20;79.00;;;;;;4891735;29;20134;-82
2023/08/02 10:49:12;;;;;;;159.05;150.40;;;31.40;78.50;;;;;;4910779;29;20052;-86
2023/08/02 10:51:41;;;;;;;201.80;187.77;;;31.70;77.80;;;;;;4882774;29;20053;-83
2023/08/02 10:54:18;;;;;;;173.30;163.20;;;31.50;76.20;;;;;;4919533;29;20131;-83
2023/08/02 10:56:51;;;;;;;;;;;31.50;75.60;;;;;;4899516;29;20055;-83
2023/08/02 10:59:25;;;;;;;134.23;127.00;;;31.50;74.80;;;;;;4900469;29;19935;-80
2023/08/02 11:01:58;;;;;;;139.13;131.68;;;31.60;75.00;;;;;;4916555;29;20060;-83
2023/08/02 11:04:26;;;;;;;133.63;126.63;;;31.60;74.40;;;;;;4914972;29;20071;-84
2023/08/02 11:06:54;;;;;;;151.40;143.48;;;31.50;72.40;;;;;;4917024;29;20059;-84
2023/08/02 11:09:31;;;;;;;186.15;172.80;;;31.40;72.50;;;;;;4913054;29;20048;-82
2023/08/02 11:12:09;;;;;;;201.05;185.32;;;31.40;72.00;;;;;;4890409;29;20048;-81
2023/08/02 11:14:42;;;;;;;186.73;172.98;;;31.20;70.90;;;;;;4916089;29;20071;-82
2023/08/02 11:17:10;;;;;;;262.52;240.73;;;31.20;70.30;;;;;;4913454;29;20413;-82
2023/08/02 11:19:49;;;;;;;159.32;150.32;;;31.20;69.00;;;;;;4896788;29;20049;-80
2023/08/02 11:22:20;;;;;;;120.35;113.63;;;31.60;69.20;;;;;;4885071;29;20051;-84
2023/08/02 11:25:03;;;;;;;133.57;126.53;;;32.10;68.70;;;;;;4897381;29;20427;-82
2023/08/02 11:27:33;;;;;;;126.85;120.43;;;32.30;68.20;;;;;;4920069;29;20054;-80
2023/08/02 11:30:07;;;;;;;141.90;134.85;;;32.50;67.00;;;;;;4900839;29;20052;-81
2023/08/02 11:32:47;;;;;;;121.07;115.07;;;32.40;66.00;;;;;;4883329;29;20067;-82
2023/08/02 11:35:18;;;;;;;117.57;111.85;;;32.10;66.30;;;;;;4880612;29;20055;-80
2023/08/02 11:37:46;;;;;;;129.07;122.65;;;32.10;66.50;;;;;;4915451;29;20079;-81
2023/08/02 11:40:14;;;;;;;118.25;112.40;;;32.10;65.60;;;;;;4895227;29;20047;-83
2023/08/02 11:42:50;;;;;;;124.78;118.55;;;32.40;67.10;;;;;;4910715;29;20044;-80
2023/08/02 11:45:30;;;;;;;121.20;114.97;;;32.60;66.40;;;;;;4882042;29;20056;-79
2023/08/02 11:47:59;;;;;;;125.72;119.47;;;32.50;65.70;;;;;;4887960;29;20048;-80
2023/08/02 11:50:31;;;;;;;116.03;110.25;;;32.40;66.30;;;;;;4904972;29;20048;-78
2023/08/02 11:53:07;;;;;;;128.68;122.40;;;32.40;67.00;;;;;;4876047;29;20132;-79
2023/08/02 11:55:36;;;;;;;129.20;122.85;;;32.40;65.40;;;;;;4873350;29;20405;-80
2023/08/02 11:58:05;;;;;;;129.38;123.03;;;32.30;65.30;;;;;;4894700;29;20051;-81
2023/08/02 12:00:40;;;;;;;129.55;123.13;;;32.50;67.00;;;;;;4896125;29;20076;-84
2023/08/02 12:03:13;;;;;;;124.90;118.78;;;32.60;65.60;;;;;;4911551;29;20056;-81
2023/08/02 12:05:44;;;;;;;132.57;125.15;;;32.80;65.50;;;;;;4889031;29;20126;-80
2023/08/02 12:08:17;;;;;;;133.30;125.55;;;32.70;65.80;;;;;;4883127;29;20068;-80
2023/08/02 12:10:47;;;;;;;145.05;135.65;;;32.50;66.70;;;;;;4898398;29;20131;-81
2023/08/02 12:13:16;;;;;;;183.50;169.02;;;32.60;66.20;;;;;;4898100;29;20484;-80
2023/08/02 12:15:58;;;;;;;122.30;116.00;;;32.60;65.10;;;;;;4902655;29;20469;-79
2023/08/02 12:18:26;;;;;;;112.80;107.03;;;33.10;65.00;;;;;;4905311;29;20111;-80
2023/08/02 12:20:56;;;;;;;115.85;110.07;;;33.40;62.70;;;;;;4919557;29;20426;-78
2023/08/02 12:23:34;;;;;;;111.85;106.50;;;33.50;63.60;;;;;;4917413;29;20524;-81
2023/08/02 12:26:02;;;;;;;125.13;117.45;;;33.60;62.20;;;;;;4873682;29;20467;-81
2023/08/02 12:28:44;;;;;;;125.20;117.28;;;33.40;61.10;;;;;;4910096;29;20060;-80
2023/08/02 12:31:12;;;;;;;124.40;116.72;;;32.10;62.60;;;;;;4881585;29;20052;-78
2023/08/02 12:33:40;;;;;;;116.10;108.45;;;32.10;63.50;;;;;;4893535;29;20055;-81
2023/08/02 12:36:19;;;;;;;120.45;113.78;;;32.10;62.20;;;;;;4908995;29;20072;-77
2023/08/02 12:38:50;;;;;;;121.95;114.15;;;31.90;64.60;;;;;;4898259;29;20416;-80
2023/08/02 12:41:19;;;;;;;132.60;123.30;;;32.10;62.40;;;;;;4919233;29;20055;-80
2023/08/02 12:43:46;;;;;;;116.50;109.95;;;32.30;62.50;;;;;;4919985;29;20457;-80